Time;durP1;ratioP1;P1;durP2;ratioP2;P2;SDS_P1;SDS_P2;PMS_P1;PMS_P2;Temp;Humidity;BMP_temperature;BMP_pressure;BME280_temperature;BME280_humidity;BME280_pressure;Samples;Min_cycle;Max_cycle;Signal;HPM_P1;HPM_P2
2023/09/14 00:00:23;;;;;;;6.83;5.50;;;14.80;99.90;;;;;;2072850;28;20228;-81
2023/09/14 00:01:24;;;;;;;8.57;5.83;;;14.80;99.90;;;;;;2064691;28;20232;-82
2023/09/14 00:02:25;;;;;;;6.27;5.67;;;14.80;99.90;;;;;;2064988;28;20338;-81
2023/09/14 00:03:25;;;;;;;6.87;6.17;;;14.80;99.90;;;;;;2064733;28;20233;-82
2023/09/14 00:04:26;;;;;;;6.80;6.07;;;14.80;99.90;;;;;;2057051;28;20708;-82
2023/09/14 00:05:27;;;;;;;6.30;5.70;;;14.80;99.90;;;;;;2056860;28;20227;-82
2023/09/14 00:06:27;;;;;;;7.00;6.30;;;14.70;99.90;;;;;;2056958;28;20309;-82
2023/09/14 00:07:28;;;;;;;6.37;5.53;;;14.70;99.90;;;;;;2056568;28;20898;-82
2023/09/14 00:08:30;;;;;;;6.20;5.70;;;14.60;99.90;;;;;;2047891;29;20227;-81
2023/09/14 00:09:31;;;;;;;6.70;5.80;;;14.60;99.90;;;;;;2056348;28;20230;-81
2023/09/14 00:10:32;;;;;;;7.00;5.80;;;14.60;99.90;;;;;;2072646;28;20553;-82
2023/09/14 00:11:33;;;;;;;6.95;5.90;;;14.60;99.90;;;;;;2064424;28;20295;-83
2023/09/14 00:12:33;;;;;;;10.63;7.17;;;14.50;99.90;;;;;;2064978;28;20341;-82
2023/09/14 00:13:34;;;;;;;7.83;7.03;;;14.50;99.90;;;;;;2072289;28;20713;-82
2023/09/14 00:14:35;;;;;;;7.27;6.07;;;14.50;99.90;;;;;;2072938;28;20241;-82
2023/09/14 00:15:39;;;;;;;7.18;6.45;;;14.60;99.90;;;;;;2064315;28;20312;-83
2023/09/14 00:16:39;;;;;;;8.15;6.97;;;14.50;99.90;;;;;;2057336;28;20754;-83
2023/09/14 00:17:40;;;;;;;8.20;6.87;;;14.40;99.90;;;;;;2064795;28;20242;-81
2023/09/14 00:18:41;;;;;;;9.47;7.87;;;14.30;99.90;;;;;;2063815;28;20649;-82
2023/09/14 00:19:41;;;;;;;8.77;7.87;;;14.30;99.90;;;;;;2064184;28;20284;-81
2023/09/14 00:20:42;;;;;;;8.20;7.40;;;14.20;99.90;;;;;;2068898;28;20262;-82
2023/09/14 00:21:43;;;;;;;8.73;7.13;;;14.20;99.90;;;;;;2059513;28;20234;-81
2023/09/14 00:22:43;;;;;;;7.33;6.63;;;14.30;99.90;;;;;;2059354;28;20242;-81
2023/09/14 00:23:44;;;;;;;8.73;7.70;;;14.30;99.90;;;;;;2068249;28;20674;-82
2023/09/14 00:24:45;;;;;;;9.33;7.20;;;14.20;99.90;;;;;;2072902;28;20233;-82
2023/09/14 00:25:46;;;;;;;10.20;8.27;;;14.30;99.90;;;;;;2064601;28;20265;-83
2023/09/14 00:26:46;;;;;;;8.13;7.33;;;14.30;99.90;;;;;;2062435;28;20261;-83
2023/09/14 00:27:48;;;;;;;9.40;8.40;;;14.30;99.90;;;;;;2072503;28;20710;-82
2023/09/14 00:28:48;;;;;;;8.45;7.53;;;14.40;99.90;;;;;;2071965;28;20613;-82
2023/09/14 00:29:49;;;;;;;10.43;7.63;;;14.40;99.90;;;;;;2064557;28;20261;-82
2023/09/14 00:30:53;;;;;;;8.70;7.90;;;14.40;99.90;;;;;;2059420;28;20246;-83
2023/09/14 00:31:53;;;;;;;9.43;7.60;;;14.40;99.90;;;;;;2073049;28;20297;-83
2023/09/14 00:32:54;;;;;;;8.70;7.73;;;14.50;99.90;;;;;;2060816;28;20238;-81
2023/09/14 00:33:56;;;;;;;9.23;7.80;;;14.40;99.90;;;;;;2068740;28;20233;-82
2023/09/14 00:34:57;;;;;;;7.65;6.68;;;14.50;99.90;;;;;;2073315;28;20234;-81
2023/09/14 00:35:58;;;;;;;9.40;6.67;;;14.50;99.90;;;;;;2076143;28;20238;-82
2023/09/14 00:36:58;;;;;;;7.00;6.30;;;14.50;99.90;;;;;;2073438;28;20210;-81
2023/09/14 00:37:59;;;;;;;6.87;6.17;;;14.40;99.90;;;;;;2073891;28;20269;-81
2023/09/14 00:39:00;;;;;;;6.77;6.17;;;14.40;99.90;;;;;;2066448;28;20879;-83
2023/09/14 00:40:06;;;;;;;7.57;6.10;;;14.40;99.90;;;;;;2058364;28;20261;-83
2023/09/14 00:41:07;;;;;;;6.53;5.82;;;14.50;99.90;;;;;;2063196;28;20240;-83
2023/09/14 00:42:08;;;;;;;7.23;5.30;;;14.50;99.90;;;;;;2057317;28;20183;-83
2023/09/14 00:43:08;;;;;;;5.83;5.23;;;14.40;99.90;;;;;;2057380;28;20178;-82
2023/09/14 00:44:09;;;;;;;6.90;5.87;;;14.40;99.90;;;;;;2065346;28;20178;-83
2023/09/14 00:45:19;;;;;;;7.43;6.00;;;14.40;99.90;;;;;;2065206;28;20191;-83
2023/09/14 00:46:20;;;;;;;5.47;4.97;;;14.30;99.90;;;;;;2073363;28;20189;-82
2023/09/14 00:47:21;;;;;;;6.72;5.97;;;14.30;99.90;;;;;;2065722;28;20405;-83
2023/09/14 00:48:21;;;;;;;6.47;5.03;;;14.30;99.90;;;;;;2065011;28;20884;-81
2023/09/14 00:49:22;;;;;;;6.43;5.83;;;14.30;99.90;;;;;;2072554;28;20597;-82
2023/09/14 00:50:24;;;;;;;6.00;5.50;;;14.30;99.90;;;;;;2064755;28;20257;-83
2023/09/14 00:51:27;;;;;;;6.43;5.75;;;14.20;99.90;;;;;;2056836;28;20235;-82
2023/09/14 00:52:28;;;;;;;9.05;5.30;;;14.00;99.90;;;;;;2057441;28;20278;-83
2023/09/14 00:53:29;;;;;;;8.05;5.25;;;14.00;99.90;;;;;;2065258;28;20230;-83
2023/09/14 00:54:30;;;;;;;6.38;5.63;;;14.10;99.90;;;;;;2073110;28;20328;-82
2023/09/14 00:55:31;;;;;;;8.13;5.87;;;14.10;99.90;;;;;;2064854;28;20230;-82
2023/09/14 00:56:32;;;;;;;7.77;7.03;;;14.10;99.90;;;;;;2064577;28;20610;-82
2023/09/14 00:57:34;;;;;;;10.03;7.10;;;14.10;99.90;;;;;;2064784;28;20273;-82
2023/09/14 00:58:34;;;;;;;8.40;7.50;;;14.00;99.90;;;;;;2064121;28;20555;-82
2023/09/14 00:59:35;;;;;;;7.97;7.13;;;14.00;99.90;;;;;;2063583;28;20775;-83
2023/09/14 01:00:36;;;;;;;8.05;7.25;;;14.00;99.90;;;;;;2062417;28;20234;-82
2023/09/14 01:01:37;;;;;;;8.37;7.23;;;14.00;99.90;;;;;;2071799;28;20243;-82
2023/09/14 01:02:40;;;;;;;10.40;7.67;;;14.10;99.90;;;;;;2063767;28;20241;-82
2023/09/14 01:03:41;;;;;;;8.73;7.63;;;14.00;99.90;;;;;;2056903;28;20234;-82
2023/09/14 01:04:42;;;;;;;8.55;7.40;;;14.10;99.90;;;;;;2065015;28;20313;-83
2023/09/14 01:05:45;;;;;;;10.27;8.10;;;14.20;99.90;;;;;;2067159;28;20229;-82
2023/09/14 01:06:46;;;;;;;7.60;6.80;;;14.10;99.90;;;;;;2061656;28;20329;-82
2023/09/14 01:07:47;;;;;;;7.73;6.93;;;14.10;99.90;;;;;;2064132;28;20229;-83
2023/09/14 01:08:49;;;;;;;12.63;8.07;;;14.00;99.90;;;;;;2071107;28;20236;-81
2023/09/14 01:09:49;;;;;;;10.77;8.02;;;14.20;99.90;;;;;;2056242;28;20769;-83
2023/09/14 01:10:50;;;;;;;13.20;8.77;;;14.10;99.90;;;;;;2056418;28;20226;-82
2023/09/14 01:11:51;;;;;;;9.97;8.57;;;14.10;99.90;;;;;;2068728;28;20693;-81
2023/09/14 01:12:51;;;;;;;8.13;7.20;;;14.10;99.90;;;;;;2081244;28;20315;-83
2023/09/14 01:14:13;;;;;;;12.83;8.63;;;14.20;99.90;;;;;;2070969;28;20595;-83
2023/09/14 01:15:41;;;;;;;10.30;7.70;;;14.10;99.90;;;;;;2061207;28;20222;-81
2023/09/14 01:17:13;;;;;;;8.63;7.68;;;14.10;99.90;;;;;;2059609;28;20229;-83
2023/09/14 01:18:26;;;;;;;9.45;7.22;;;13.90;99.90;;;;;;2061782;28;20217;-84
2023/09/14 01:19:45;;;;;;;9.55;8.30;;;14.00;99.90;;;;;;2061943;28;20605;-83
2023/09/14 01:21:45;;;;;;;10.57;8.75;;;14.00;99.90;;;;;;2066408;28;20698;-83
2023/09/14 01:23:04;;;;;;;9.32;8.35;;;14.00;99.90;;;;;;2068183;28;20307;-82
2023/09/14 01:24:20;;;;;;;13.32;8.38;;;13.90;99.90;;;;;;2064305;28;20353;-83
2023/09/14 01:25:41;;;;;;;12.18;8.98;;;13.90;99.90;;;;;;2066055;28;20242;-83
2023/09/14 01:26:42;;;;;;;9.60;8.60;;;14.00;99.90;;;;;;2064573;28;20229;-83
2023/09/14 01:27:44;;;;;;;9.30;7.27;;;14.00;99.90;;;;;;2071907;28;20221;-83
2023/09/14 01:28:44;;;;;;;11.30;8.52;;;14.00;99.90;;;;;;2054215;28;20234;-82
2023/09/14 01:29:45;;;;;;;9.40;8.40;;;14.00;99.90;;;;;;2059285;28;20286;-81
2023/09/14 01:30:46;;;;;;;13.13;9.40;;;13.90;99.90;;;;;;2073865;28;20303;-82
2023/09/14 01:31:47;;;;;;;10.33;8.33;;;13.90;99.90;;;;;;2068806;28;20245;-81
2023/09/14 01:32:48;;;;;;;9.60;8.15;;;13.90;99.90;;;;;;2050116;28;20255;-82
2023/09/14 01:33:49;;;;;;;9.02;8.10;;;13.90;99.90;;;;;;2046132;28;20250;-83
2023/09/14 01:34:50;;;;;;;9.37;7.90;;;14.00;99.90;;;;;;2048882;28;20255;-83
2023/09/14 01:36:14;;;;;;;8.83;7.77;;;14.00;99.90;;;;;;2056165;28;20227;-83
2023/09/14 01:37:15;;;;;;;10.25;6.65;;;13.90;99.90;;;;;;2060759;28;20213;-83
2023/09/14 01:38:17;;;;;;;8.70;7.83;;;13.90;99.90;;;;;;2063258;28;20177;-82
2023/09/14 01:39:19;;;;;;;10.70;8.48;;;13.90;99.90;;;;;;2058763;28;20203;-83
2023/09/14 01:40:22;;;;;;;10.07;7.50;;;13.80;99.90;;;;;;2057526;28;20183;-82
2023/09/14 01:41:24;;;;;;;8.98;7.43;;;13.80;99.90;;;;;;2055993;28;20703;-82
2023/09/14 01:42:25;;;;;;;9.45;7.88;;;13.80;99.90;;;;;;2064449;28;20234;-83
2023/09/14 01:43:26;;;;;;;12.40;8.30;;;13.80;99.90;;;;;;2070156;28;20312;-82
2023/09/14 01:44:28;;;;;;;9.57;7.70;;;13.90;99.90;;;;;;2069762;28;20225;-83
2023/09/14 01:45:31;;;;;;;10.68;9.35;;;13.80;99.90;;;;;;2063821;28;20475;-83
2023/09/14 01:46:33;;;;;;;11.25;7.18;;;13.80;99.90;;;;;;2064124;28;20226;-83
2023/09/14 01:47:33;;;;;;;10.90;7.85;;;13.90;99.90;;;;;;2055923;28;20238;-83
2023/09/14 01:48:34;;;;;;;7.77;6.97;;;13.90;99.90;;;;;;2054261;28;20255;-83
2023/09/14 01:49:35;;;;;;;6.85;6.07;;;13.90;99.90;;;;;;2072022;28;20229;-83
2023/09/14 01:50:36;;;;;;;6.20;5.60;;;13.80;99.90;;;;;;2071392;28;20295;-84
2023/09/14 01:51:36;;;;;;;7.33;5.53;;;13.80;99.90;;;;;;2071512;28;20229;-82
2023/09/14 01:52:37;;;;;;;6.00;5.50;;;13.70;99.90;;;;;;2063297;28;20237;-83
2023/09/14 01:53:38;;;;;;;7.03;6.13;;;13.70;99.90;;;;;;2055423;28;20231;-82
2023/09/14 01:54:39;;;;;;;6.87;5.83;;;13.70;99.90;;;;;;2063997;28;20241;-83
2023/09/14 01:55:40;;;;;;;7.53;6.00;;;13.60;99.90;;;;;;2071197;28;20237;-83
2023/09/14 01:56:41;;;;;;;8.50;5.97;;;13.70;99.90;;;;;;2070124;28;20257;-82
2023/09/14 01:57:42;;;;;;;7.20;5.95;;;13.70;99.90;;;;;;2063622;28;20313;-84
2023/09/14 01:58:42;;;;;;;7.63;6.27;;;13.70;99.90;;;;;;2063060;28;20230;-83
2023/09/14 01:59:43;;;;;;;7.13;6.43;;;13.60;99.90;;;;;;2062769;28;20269;-83
2023/09/14 02:00:44;;;;;;;7.77;6.97;;;13.60;99.90;;;;;;2071787;28;20228;-83
2023/09/14 02:01:44;;;;;;;9.03;6.73;;;13.60;99.90;;;;;;2063817;28;20333;-80
2023/09/14 02:02:45;;;;;;;10.10;7.60;;;13.60;99.90;;;;;;2063912;28;20237;-83
2023/09/14 02:03:46;;;;;;;8.67;6.23;;;13.60;99.90;;;;;;2070976;28;20608;-83
2023/09/14 02:04:47;;;;;;;7.47;6.77;;;13.60;99.90;;;;;;2063639;28;20226;-83
2023/09/14 02:05:58;;;;;;;7.28;6.40;;;13.60;99.90;;;;;;2062870;28;20339;-83
2023/09/14 02:06:58;;;;;;;8.82;6.50;;;13.60;99.90;;;;;;2057224;28;20258;-83
2023/09/14 02:07:59;;;;;;;7.20;6.00;;;13.60;99.90;;;;;;2047890;28;20272;-84
2023/09/14 02:09:00;;;;;;;8.47;6.23;;;13.60;99.90;;;;;;2054833;28;20718;-84
2023/09/14 02:10:01;;;;;;;6.60;5.90;;;13.50;99.90;;;;;;2063789;28;20281;-82
2023/09/14 02:11:01;;;;;;;6.67;5.57;;;13.50;99.90;;;;;;2052910;28;20231;-82
2023/09/14 02:12:02;;;;;;;7.43;5.40;;;13.60;99.90;;;;;;2062695;28;20186;-83
2023/09/14 02:13:03;;;;;;;6.83;5.73;;;13.50;99.90;;;;;;2071501;28;20197;-83
2023/09/14 02:14:04;;;;;;;6.97;5.23;;;13.50;99.90;;;;;;2072788;28;20588;-82
2023/09/14 02:15:05;;;;;;;7.53;5.33;;;13.40;99.90;;;;;;2063763;28;20238;-83
2023/09/14 02:16:06;;;;;;;7.53;6.03;;;13.50;99.90;;;;;;2063757;28;20186;-82
2023/09/14 02:17:07;;;;;;;6.43;5.47;;;13.40;99.90;;;;;;2063791;28;20270;-82
2023/09/14 02:18:08;;;;;;;7.27;5.93;;;13.40;99.90;;;;;;2064053;28;20605;-83
2023/09/14 02:19:08;;;;;;;6.77;6.07;;;13.40;99.90;;;;;;2060658;28;20198;-83
2023/09/14 02:20:10;;;;;;;7.40;5.47;;;13.40;99.90;;;;;;2056728;28;20282;-83
2023/09/14 02:21:11;;;;;;;6.30;5.70;;;13.40;99.90;;;;;;2065123;28;20175;-83
2023/09/14 02:22:12;;;;;;;7.03;6.32;;;13.30;99.90;;;;;;2064371;28;20181;-83
2023/09/14 02:23:13;;;;;;;7.27;6.57;;;13.30;99.90;;;;;;2056574;28;20190;-83
2023/09/14 02:24:13;;;;;;;8.13;7.17;;;13.40;99.90;;;;;;2055878;28;20187;-84
2023/09/14 02:25:14;;;;;;;7.03;6.30;;;13.40;99.90;;;;;;2056440;28;20194;-84
2023/09/14 02:26:15;;;;;;;6.87;6.17;;;13.50;99.90;;;;;;2055775;28;20627;-83
2023/09/14 02:27:16;;;;;;;7.13;5.87;;;13.50;99.90;;;;;;2055615;28;20599;-83
2023/09/14 02:28:19;;;;;;;7.20;6.50;;;13.60;99.90;;;;;;2055190;28;20294;-83
2023/09/14 02:29:23;;;;;;;7.55;6.20;;;13.60;99.90;;;;;;2055651;28;20485;-84
2023/09/14 02:30:26;;;;;;;6.72;5.75;;;13.60;99.90;;;;;;2055663;28;20786;-84
2023/09/14 02:31:26;;;;;;;7.78;6.10;;;13.60;99.90;;;;;;2055520;28;20643;-83
2023/09/14 02:32:28;;;;;;;6.50;5.90;;;13.70;99.90;;;;;;2066200;28;20280;-83
2023/09/14 02:33:30;;;;;;;6.63;5.68;;;13.60;99.90;;;;;;2067669;28;20301;-81
2023/09/14 02:34:31;;;;;;;7.00;5.57;;;13.60;99.90;;;;;;2064600;28;20226;-82
2023/09/14 02:35:32;;;;;;;7.50;5.60;;;13.70;99.90;;;;;;2079062;28;20280;-82
2023/09/14 02:36:33;;;;;;;6.33;5.77;;;13.80;99.90;;;;;;2057521;28;20230;-83
2023/09/14 02:37:34;;;;;;;8.32;6.40;;;13.80;99.90;;;;;;2058600;28;20235;-83
2023/09/14 02:38:34;;;;;;;6.70;6.00;;;13.70;99.90;;;;;;2057640;28;20761;-83
2023/09/14 02:39:35;;;;;;;7.77;5.87;;;13.80;99.90;;;;;;2047607;28;20346;-81
2023/09/14 02:40:36;;;;;;;7.87;5.63;;;13.80;99.90;;;;;;2055864;28;20666;-85
2023/09/14 02:41:37;;;;;;;6.85;5.05;;;13.80;99.90;;;;;;2063640;28;20230;-83
2023/09/14 02:42:38;;;;;;;5.03;4.53;;;13.90;99.90;;;;;;2056844;28;20334;-83
2023/09/14 02:43:38;;;;;;;5.47;4.72;;;13.90;99.90;;;;;;2063119;28;20233;-83
2023/09/14 02:44:39;;;;;;;5.33;4.83;;;13.90;99.90;;;;;;2063326;28;20591;-81
2023/09/14 02:45:40;;;;;;;5.43;4.83;;;13.90;99.90;;;;;;2072515;28;20312;-82
2023/09/14 02:46:41;;;;;;;7.33;5.63;;;14.00;99.90;;;;;;2071943;28;20232;-83
2023/09/14 02:47:41;;;;;;;7.23;6.00;;;14.00;99.90;;;;;;2064515;28;20261;-82
2023/09/14 02:48:42;;;;;;;6.17;5.57;;;13.90;99.90;;;;;;2064198;28;20245;-83
2023/09/14 02:49:43;;;;;;;6.67;5.20;;;14.00;99.90;;;;;;2073668;28;20256;-83
2023/09/14 02:50:43;;;;;;;6.30;5.40;;;14.00;99.90;;;;;;2066674;28;20261;-82
2023/09/14 02:51:44;;;;;;;6.70;5.87;;;13.80;99.90;;;;;;2064878;28;20257;-83
2023/09/14 02:52:45;;;;;;;6.23;5.63;;;13.90;99.90;;;;;;2064871;28;20260;-83
2023/09/14 02:53:46;;;;;;;6.30;5.70;;;13.80;99.90;;;;;;2063605;28;20233;-82
2023/09/14 02:54:47;;;;;;;7.15;6.35;;;13.90;99.90;;;;;;2063803;28;20273;-83
2023/09/14 02:55:48;;;;;;;7.27;5.87;;;13.90;99.90;;;;;;2063962;28;20237;-82
2023/09/14 02:56:48;;;;;;;6.40;5.80;;;13.90;99.90;;;;;;2055680;28;20261;-83
2023/09/14 02:57:49;;;;;;;6.43;5.80;;;13.80;99.90;;;;;;2063877;28;20828;-83
2023/09/14 02:58:53;;;;;;;6.33;5.73;;;13.80;99.90;;;;;;2063352;28;20245;-81
2023/09/14 02:59:55;;;;;;;6.38;5.78;;;13.90;99.90;;;;;;2069103;28;20744;-83
2023/09/14 03:00:56;;;;;;;6.40;5.80;;;13.90;99.90;;;;;;2071440;28;20233;-82
2023/09/14 03:01:57;;;;;;;5.95;5.35;;;13.90;99.90;;;;;;2055295;28;20238;-83
2023/09/14 03:02:57;;;;;;;7.57;5.63;;;13.90;99.90;;;;;;2063199;28;20344;-82
2023/09/14 03:03:59;;;;;;;6.43;5.73;;;13.90;99.90;;;;;;2054649;28;20707;-82
2023/09/14 03:04:59;;;;;;;5.50;5.00;;;13.90;99.90;;;;;;2055282;28;20237;-83
2023/09/14 03:06:00;;;;;;;6.03;5.43;;;13.90;99.90;;;;;;2071119;28;20244;-82
2023/09/14 03:07:01;;;;;;;5.90;5.30;;;13.80;99.90;;;;;;2061588;28;20705;-83
2023/09/14 03:08:02;;;;;;;5.90;5.30;;;13.70;99.90;;;;;;2062866;28;20666;-82
2023/09/14 03:09:03;;;;;;;6.20;5.60;;;13.70;99.90;;;;;;2053796;28;20215;-82
2023/09/14 03:10:06;;;;;;;6.13;5.63;;;13.70;99.90;;;;;;2055390;28;20542;-82
2023/09/14 03:11:07;;;;;;;5.63;5.00;;;13.80;99.90;;;;;;2064254;28;20615;-83
2023/09/14 03:12:08;;;;;;;6.43;5.30;;;13.80;99.90;;;;;;2056926;28;20242;-83
2023/09/14 03:13:08;;;;;;;5.87;5.37;;;13.90;99.90;;;;;;2064903;28;20279;-82
2023/09/14 03:14:09;;;;;;;5.70;5.10;;;14.00;99.90;;;;;;2064050;28;20186;-82
2023/09/14 03:15:10;;;;;;;7.33;5.40;;;14.00;99.90;;;;;;2056218;28;20261;-81
2023/09/14 03:16:11;;;;;;;5.73;5.23;;;14.00;99.90;;;;;;2064934;28;20182;-82
2023/09/14 03:17:11;;;;;;;5.43;4.93;;;14.00;99.90;;;;;;2072429;28;20193;-83
2023/09/14 03:18:12;;;;;;;6.00;5.10;;;14.00;99.90;;;;;;2064654;28;20221;-81
2023/09/14 03:19:13;;;;;;;6.53;5.20;;;14.10;99.90;;;;;;2056610;28;20269;-82
2023/09/14 03:20:13;;;;;;;5.37;4.87;;;14.10;99.90;;;;;;2057945;28;20214;-83
2023/09/14 03:21:28;;;;;;;8.33;5.33;;;14.20;99.90;;;;;;2074643;28;20178;-83
2023/09/14 03:22:28;;;;;;;5.57;5.07;;;14.20;99.90;;;;;;2072303;28;20238;-81
2023/09/14 03:23:29;;;;;;;6.93;5.40;;;14.30;99.90;;;;;;2067960;28;20226;-83
2023/09/14 03:24:30;;;;;;;8.03;5.00;;;14.30;99.90;;;;;;2068428;28;20336;-83
2023/09/14 03:25:31;;;;;;;7.17;5.37;;;14.20;99.90;;;;;;2073550;28;20228;-82
2023/09/14 03:26:31;;;;;;;6.18;5.57;;;14.20;99.90;;;;;;2071165;28;20229;-83
2023/09/14 03:27:32;;;;;;;5.97;5.37;;;14.20;99.90;;;;;;2068956;28;20262;-82
2023/09/14 03:28:33;;;;;;;5.83;4.93;;;14.20;99.90;;;;;;2070644;28;20387;-82
2023/09/14 03:29:33;;;;;;;5.97;4.83;;;14.20;99.90;;;;;;2059617;28;20241;-82
2023/09/14 03:30:38;;;;;;;5.37;4.87;;;14.20;99.90;;;;;;2064511;28;20226;-82
2023/09/14 03:31:39;;;;;;;6.25;4.85;;;14.20;99.90;;;;;;2073213;28;20230;-83
2023/09/14 03:32:39;;;;;;;4.93;4.23;;;14.20;99.90;;;;;;2072446;28;20324;-83
2023/09/14 03:33:40;;;;;;;6.10;4.40;;;14.10;99.90;;;;;;2065684;28;20226;-82
2023/09/14 03:34:41;;;;;;;5.53;5.03;;;14.00;99.90;;;;;;2057076;28;20290;-82
2023/09/14 03:35:41;;;;;;;5.23;4.73;;;14.00;99.90;;;;;;2057730;28;20341;-83
2023/09/14 03:36:42;;;;;;;6.30;4.93;;;13.90;99.90;;;;;;2057565;28;20237;-82
2023/09/14 03:37:43;;;;;;;6.60;5.20;;;13.90;99.90;;;;;;2056968;28;20226;-83
2023/09/14 03:38:44;;;;;;;6.47;5.30;;;13.80;99.90;;;;;;2065012;28;20292;-82
2023/09/14 03:39:45;;;;;;;5.70;4.85;;;13.80;99.90;;;;;;2064346;28;20613;-83
2023/09/14 03:40:46;;;;;;;5.90;5.15;;;13.80;99.90;;;;;;2060780;28;20254;-83
2023/09/14 03:41:49;;;;;;;6.97;5.67;;;13.80;99.90;;;;;;2061740;28;20230;-82
2023/09/14 03:42:50;;;;;;;6.82;5.55;;;13.80;99.90;;;;;;2057115;28;20242;-83
2023/09/14 03:43:51;;;;;;;9.23;6.22;;;13.80;99.90;;;;;;2058270;28;20313;-82
2023/09/14 03:44:51;;;;;;;7.23;5.83;;;13.60;99.90;;;;;;2059448;28;20234;-85
2023/09/14 03:45:52;;;;;;;8.83;6.10;;;13.60;99.90;;;;;;2065694;28;20225;-82
2023/09/14 03:46:53;;;;;;;7.63;6.20;;;13.60;99.90;;;;;;2065735;28;20758;-82
2023/09/14 03:47:55;;;;;;;8.13;6.47;;;13.60;99.90;;;;;;2065142;28;20317;-82
2023/09/14 03:48:56;;;;;;;7.28;6.53;;;13.60;99.90;;;;;;2066493;28;20229;-82
2023/09/14 03:49:56;;;;;;;6.83;6.13;;;13.50;99.90;;;;;;2072587;28;20291;-82
2023/09/14 03:50:59;;;;;;;8.07;6.37;;;13.50;99.90;;;;;;2073788;28;20590;-82
2023/09/14 03:52:00;;;;;;;7.85;6.75;;;13.60;99.90;;;;;;2065939;28;20332;-82
2023/09/14 03:53:02;;;;;;;12.77;8.73;;;13.50;99.90;;;;;;2064729;28;20229;-81
2023/09/14 03:54:03;;;;;;;9.90;7.78;;;13.60;99.90;;;;;;2063808;28;20374;-82
2023/09/14 03:55:05;;;;;;;14.77;9.37;;;13.60;99.90;;;;;;2064991;28;20197;-83
2023/09/14 03:56:05;;;;;;;15.57;9.75;;;13.70;99.90;;;;;;2065612;28;20193;-82
2023/09/14 03:57:14;;;;;;;14.40;9.33;;;13.80;99.90;;;;;;2072536;28;20253;-83
2023/09/14 03:58:15;;;;;;;6.95;5.97;;;13.80;99.90;;;;;;2066339;28;20171;-81
2023/09/14 03:59:15;;;;;;;7.50;6.10;;;13.80;99.90;;;;;;2066060;28;20714;-81
2023/09/14 04:00:17;;;;;;;6.83;6.13;;;13.80;99.90;;;;;;2070196;28;20182;-80
2023/09/14 04:01:17;;;;;;;10.85;7.45;;;13.80;99.90;;;;;;2069769;28;20179;-81
2023/09/14 04:02:18;;;;;;;8.83;7.43;;;13.80;99.90;;;;;;2071128;28;20196;-82
2023/09/14 04:03:19;;;;;;;9.13;6.50;;;13.80;99.90;;;;;;2068716;28;20281;-81
2023/09/14 04:04:20;;;;;;;9.03;6.67;;;13.80;99.90;;;;;;2069597;28;20257;-81
2023/09/14 04:05:20;;;;;;;9.70;8.03;;;13.80;99.90;;;;;;2062413;28;20239;-83
2023/09/14 04:06:21;;;;;;;14.43;8.67;;;13.80;99.90;;;;;;2051322;28;20274;-81
2023/09/14 04:07:22;;;;;;;11.27;8.43;;;13.70;99.90;;;;;;2061065;28;20231;-80
2023/09/14 04:08:24;;;;;;;17.53;9.30;;;13.70;99.90;;;;;;2061466;28;20298;-82
2023/09/14 04:09:29;;;;;;;12.90;9.05;;;13.70;99.90;;;;;;2064250;28;20639;-81
2023/09/14 04:10:30;;;;;;;14.77;8.68;;;13.70;99.90;;;;;;2072934;28;20744;-82
2023/09/14 04:11:31;;;;;;;27.63;8.37;;;13.70;99.90;;;;;;2072230;28;20229;-82
2023/09/14 04:12:32;;;;;;;25.80;9.90;;;13.70;99.90;;;;;;2063465;28;20475;-83
2023/09/14 04:13:34;;;;;;;20.50;8.75;;;13.50;99.90;;;;;;2063256;28;20690;-82
2023/09/14 04:14:35;;;;;;;15.05;9.75;;;13.30;99.90;;;;;;2056482;28;20234;-81
2023/09/14 04:15:35;;;;;;;17.57;8.77;;;13.20;99.90;;;;;;2063969;28;20280;-81
2023/09/14 04:16:36;;;;;;;13.03;8.63;;;13.20;99.90;;;;;;2063708;28;20230;-82
2023/09/14 04:17:38;;;;;;;14.33;8.83;;;13.20;99.90;;;;;;2056025;28;20614;-81
2023/09/14 04:18:39;;;;;;;15.95;9.15;;;13.20;99.90;;;;;;2063296;28;20756;-80
2023/09/14 04:19:43;;;;;;;21.80;9.63;;;13.10;99.90;;;;;;2062363;28;20276;-82
2023/09/14 04:20:46;;;;;;;19.10;10.27;;;13.20;99.90;;;;;;2055958;28;20328;-82
2023/09/14 04:21:46;;;;;;;22.02;10.98;;;13.30;99.90;;;;;;2056862;28;20230;-82
2023/09/14 04:22:49;;;;;;;24.10;11.10;;;13.40;99.90;;;;;;2062843;28;20712;-82
2023/09/14 04:23:49;;;;;;;22.60;11.13;;;13.60;99.90;;;;;;2069815;28;20320;-81
2023/09/14 04:24:50;;;;;;;17.13;10.10;;;13.70;99.90;;;;;;2072617;28;20225;-83
2023/09/14 04:25:51;;;;;;;19.83;11.13;;;13.80;99.90;;;;;;2072450;28;20284;-83
2023/09/14 04:26:51;;;;;;;16.10;9.97;;;13.90;99.90;;;;;;2073012;28;20308;-82
2023/09/14 04:27:52;;;;;;;15.87;9.90;;;13.90;99.90;;;;;;2064536;28;20223;-83
2023/09/14 04:28:53;;;;;;;14.87;9.37;;;13.90;99.90;;;;;;2063256;28;20258;-83
2023/09/14 04:29:53;;;;;;;13.07;8.80;;;13.90;99.90;;;;;;2073104;28;20637;-82
2023/09/14 04:30:58;;;;;;;11.73;8.70;;;13.80;99.90;;;;;;2072266;28;20238;-81
2023/09/14 04:31:59;;;;;;;12.65;9.07;;;13.90;99.90;;;;;;2065756;28;20299;-82
2023/09/14 04:33:00;;;;;;;13.38;8.98;;;13.90;99.90;;;;;;2069565;28;20340;-83
2023/09/14 04:34:01;;;;;;;11.13;8.45;;;14.00;99.90;;;;;;2066972;28;20293;-84
2023/09/14 04:35:03;;;;;;;11.82;8.75;;;14.00;99.90;;;;;;2057683;28;20229;-84
2023/09/14 04:36:07;;;;;;;12.77;8.73;;;14.00;99.90;;;;;;2057820;28;20194;-83
2023/09/14 04:37:08;;;;;;;12.82;8.43;;;14.10;99.90;;;;;;2059404;28;21062;-82
2023/09/14 04:38:09;;;;;;;16.77;8.60;;;14.20;99.90;;;;;;2066009;28;20233;-83
2023/09/14 04:39:10;;;;;;;14.30;9.60;;;14.30;99.90;;;;;;2075886;28;20225;-82
2023/09/14 04:40:11;;;;;;;15.83;8.97;;;14.20;99.90;;;;;;2078238;28;20185;-83
2023/09/14 04:41:11;;;;;;;15.30;8.65;;;14.20;99.90;;;;;;2070486;28;20673;-81
2023/09/14 04:42:13;;;;;;;16.43;8.93;;;14.10;99.90;;;;;;2071574;28;20210;-83
2023/09/14 04:43:15;;;;;;;22.13;12.35;;;14.20;99.90;;;;;;2059983;28;20183;-82
2023/09/14 04:44:15;;;;;;;33.42;14.18;;;14.20;99.90;;;;;;2056574;28;20743;-82
2023/09/14 04:45:16;;;;;;;23.60;13.90;;;14.00;99.90;;;;;;2048797;28;20184;-81
2023/09/14 04:46:16;;;;;;;25.33;13.57;;;13.90;99.90;;;;;;2048533;29;20290;-82
2023/09/14 04:47:18;;;;;;;20.23;12.50;;;14.00;99.90;;;;;;2048777;29;20200;-82
2023/09/14 04:48:18;;;;;;;30.60;14.50;;;14.00;99.90;;;;;;2056405;28;20187;-83
2023/09/14 04:49:19;;;;;;;39.97;14.73;;;14.00;99.90;;;;;;2060391;28;20741;-83
2023/09/14 04:50:20;;;;;;;25.10;14.27;;;14.00;99.90;;;;;;2072667;28;20712;-82
2023/09/14 04:51:22;;;;;;;20.77;14.33;;;14.00;99.90;;;;;;2072525;28;20235;-84
2023/09/14 04:52:22;;;;;;;44.53;17.95;;;14.10;99.90;;;;;;2057049;28;20227;-83
2023/09/14 04:53:27;;;;;;;38.63;15.40;;;14.10;99.90;;;;;;2056705;28;20735;-82
2023/09/14 04:54:27;;;;;;;78.90;19.05;;;14.20;99.90;;;;;;2049294;28;20317;-82
2023/09/14 04:55:28;;;;;;;55.90;16.37;;;14.30;99.90;;;;;;2054972;28;20242;-83
2023/09/14 04:56:29;;;;;;;33.70;16.90;;;14.30;99.90;;;;;;2057255;28;20230;-83
2023/09/14 04:57:29;;;;;;;32.13;14.07;;;14.40;99.90;;;;;;2064794;28;20333;-83
2023/09/14 04:58:30;;;;;;;36.53;15.03;;;14.40;99.90;;;;;;2064433;28;20230;-83
2023/09/14 04:59:31;;;;;;;30.17;14.53;;;14.40;99.90;;;;;;2055895;28;20798;-84
2023/09/14 05:00:33;;;;;;;34.30;15.17;;;14.40;99.90;;;;;;2064421;28;20644;-83
2023/09/14 05:01:34;;;;;;;31.38;13.50;;;14.40;99.90;;;;;;2063751;28;20241;-82
2023/09/14 05:02:35;;;;;;;32.77;12.07;;;14.50;99.90;;;;;;2056942;28;20354;-82
2023/09/14 05:03:36;;;;;;;38.97;12.43;;;14.50;99.90;;;;;;2056201;28;20666;-82
2023/09/14 05:04:36;;;;;;;29.60;12.30;;;14.50;99.90;;;;;;2048150;28;20231;-84
2023/09/14 05:05:37;;;;;;;39.07;13.67;;;14.50;99.90;;;;;;2057021;28;20878;-84
2023/09/14 05:06:38;;;;;;;34.03;13.93;;;14.60;99.90;;;;;;2071754;28;20233;-83
2023/09/14 05:07:43;;;;;;;36.87;13.63;;;14.60;99.90;;;;;;2053270;28;20223;-83
2023/09/14 05:08:43;;;;;;;46.22;12.15;;;14.50;99.90;;;;;;2062868;28;20264;-83
2023/09/14 05:09:44;;;;;;;94.97;18.13;;;14.50;99.90;;;;;;2068840;28;20276;-83
2023/09/14 05:10:48;;;;;;;48.90;15.03;;;14.40;99.90;;;;;;2063874;28;20393;-83
2023/09/14 05:11:49;;;;;;;39.63;15.45;;;14.40;99.90;;;;;;2060953;28;20314;-82
2023/09/14 05:12:49;;;;;;;46.77;16.13;;;14.40;99.90;;;;;;2063827;28;20233;-82
2023/09/14 05:13:50;;;;;;;55.67;17.57;;;14.50;99.90;;;;;;2071314;28;20357;-83
2023/09/14 05:14:51;;;;;;;62.73;17.63;;;14.40;99.90;;;;;;2071297;28;20244;-83
2023/09/14 05:15:51;;;;;;;129.73;20.03;;;14.40;99.90;;;;;;2064576;28;20742;-83
2023/09/14 05:16:52;;;;;;;113.00;20.23;;;14.40;99.90;;;;;;2063498;28;20260;-83
2023/09/14 05:17:53;;;;;;;72.03;17.17;;;14.40;99.90;;;;;;2063984;28;20631;-82
2023/09/14 05:18:54;;;;;;;79.60;18.97;;;14.50;99.90;;;;;;2062700;28;20236;-82
2023/09/14 05:19:54;;;;;;;104.00;20.63;;;14.50;99.90;;;;;;2063646;28;20281;-81
2023/09/14 05:20:55;;;;;;;90.00;19.77;;;14.50;99.90;;;;;;2055880;28;20246;-83